Time,TemperatureF,DewpointF,PressureIn,WindDirection,WindDirectionDegrees,WindSpeedMPH,WindSpeedGustMPH,Humidity,HourlyPrecipIn,Conditions,Clouds,dailyrainin,SoftwareType,DateUTC
2013-02-12 00:00:00,45.5,27.0,25.31,SSE,158,6.3,6.3,48,0.00,,---,0.00,VWS V14.01,2013-02-12 06:00:00,
2013-02-12 00:05:00,45.9,27.3,25.31,SSE,158,6.3,7.8,48,0.00,,---,0.00,VWS V14.01,2013-02-12 06:05:00,
2013-02-12 00:10:00,45.1,26.6,25.31,SSE,158,5.8,5.8,48,0.00,,---,0.00,VWS V14.01,2013-02-12 06:10:00,
2013-02-12 00:15:00,45.3,26.3,25.31,South,180,2.9,2.9,47,0.00,,---,0.00,VWS V14.01,2013-02-12 06:15:00,
2013-02-12 00:20:00,44.6,25.6,25.31,South,180,2.9,2.9,47,0.00,,---,0.00,VWS V14.01,2013-02-12 06:20:00,
2013-02-12 00:25:00,43.9,25.5,25.31,South,180,3.6,5.4,48,0.00,,---,0.00,VWS V14.01,2013-02-12 06:25:00,
2013-02-12 00:30:00,43.5,25.1,25.28,South,180,2.7,2.7,48,0.00,,---,0.00,VWS V14.01,2013-02-12 06:30:00,
2013-02-12 00:35:00,43.7,23.8,25.28,South,180,3.4,3.8,45,0.00,,---,0.00,VWS V14.01,2013-02-12 06:35:00,
2013-02-12 00:40:00,43.7,22.7,25.28,South,180,4.9,4.9,43,0.00,,---,0.00,VWS V14.01,2013-02-12 06:40:00,
2013-02-12 00:45:00,44.8,22.0,25.31,SSW,202,2.0,3.6,40,0.00,,---,0.00,VWS V14.01,2013-02-12 06:45:00,
2013-02-12 00:50:00,44.6,21.2,25.31,SSW,202,5.4,5.4,39,0.00,,---,0.00,VWS V14.01,2013-02-12 06:50:00,
2013-02-12 00:55:00,45.7,22.2,25.31,SSW,202,7.4,7.4,39,0.00,,---,0.00,VWS V14.01,2013-02-12 06:55:00,
2013-02-12 01:00:00,45.9,21.7,25.31,SSW,202,5.6,6.0,38,0.00,,---,0.00,VWS V14.01,2013-02-12 07:00:00,
2013-02-12 01:05:00,45.3,21.2,25.31,SSW,202,5.4,5.6,38,0.00,,---,0.00,VWS V14.01,2013-02-12 07:05:00,
2013-02-12 01:10:00,46.2,22.0,25.31,SSW,202,7.2,7.6,38,0.00,,---,0.00,VWS V14.01,2013-02-12 07:10:00,
2013-02-12 01:15:00,45.5,21.4,25.31,SW,225,7.4,7.6,38,0.00,,---,0.00,VWS V14.01,2013-02-12 07:15:00,
2013-02-12 01:20:00,46.2,22.0,25.31,SW,225,7.6,7.6,38,0.00,,---,0.00,VWS V14.01,2013-02-12 07:20:00,
2013-02-12 01:25:00,46.9,21.4,25.31,SW,225,10.3,10.5,36,0.00,,---,0.00,VWS V14.01,2013-02-12 07:25:00,
2013-02-12 01:30:00,47.5,20.5,25.31,SW,225,10.7,10.7,34,0.00,,---,0.00,VWS V14.01,2013-02-12 07:30:00,
2013-02-12 01:35:00,47.7,20.0,25.31,SW,225,10.1,10.5,33,0.00,,---,0.00,VWS V14.01,2013-02-12 07:35:00,
2013-02-12 01:40:00,47.7,19.3,25.31,SW,225,11.4,11.4,32,0.00,,---,0.00,VWS V14.01,2013-02-12 07:40:00,
2013-02-12 01:45:00,47.3,19.0,25.31,SW,225,10.7,10.7,32,0.00,,---,0.00,VWS V14.01,2013-02-12 07:45:00,
2013-02-12 01:50:00,47.1,18.8,25.31,SW,225,10.1,10.1,32,0.00,,---,0.00,VWS V14.01,2013-02-12 07:50:00,
2013-02-12 01:55:00,46.8,17.7,25.31,SW,225,9.0,9.0,31,0.00,,---,0.00,VWS V14.01,2013-02-12 07:55:00,
2013-02-12 02:00:00,47.1,18.1,25.31,SW,225,9.8,9.8,31,0.00,,---,0.00,VWS V14.01,2013-02-12 08:00:00,
2013-02-12 02:05:00,46.9,17.1,25.31,SW,225,9.2,9.2,30,0.00,,---,0.00,VWS V14.01,2013-02-12 08:05:00,
2013-02-12 02:10:00,46.6,16.8,25.31,SW,225,8.7,10.5,30,0.00,,---,0.00,VWS V14.01,2013-02-12 08:10:00,
2013-02-12 02:15:00,46.4,15.9,25.31,SSW,202,8.5,10.5,29,0.00,,---,0.00,VWS V14.01,2013-02-12 08:15:00,
2013-02-12 02:20:00,46.4,15.9,25.31,SW,225,10.1,10.1,29,0.00,,---,0.00,VWS V14.01,2013-02-12 08:20:00,
2013-02-12 02:25:00,46.4,15.9,25.31,SW,225,10.5,11.0,29,0.00,,---,0.00,VWS V14.01,2013-02-12 08:25:00,
2013-02-12 02:30:00,46.4,15.1,25.31,SW,225,11.0,11.0,28,0.00,,---,0.00,VWS V14.01,2013-02-12 08:30:00,
2013-02-12 02:35:00,46.2,14.9,25.31,SW,225,10.7,10.7,28,0.00,,---,0.00,VWS V14.01,2013-02-12 08:35:00,
2013-02-12 02:40:00,46.0,14.8,25.31,SW,225,10.1,10.1,28,0.00,,---,0.00,VWS V14.01,2013-02-12 08:40:00,
2013-02-12 02:45:00,45.7,14.5,25.28,SW,225,10.5,10.5,28,0.00,,---,0.00,VWS V14.01,2013-02-12 08:45:00,
2013-02-12 02:50:00,45.5,14.3,25.28,SW,225,8.1,10.1,28,0.00,,---,0.00,VWS V14.01,2013-02-12 08:50:00,
2013-02-12 02:55:00,45.1,14.0,25.28,SW,225,9.6,9.6,28,0.00,,---,0.00,VWS V14.01,2013-02-12 08:55:00,
2013-02-12 03:00:00,44.8,13.7,25.31,SW,225,8.7,8.7,28,0.00,,---,0.00,VWS V14.01,2013-02-12 09:00:00,
2013-02-12 03:05:00,44.8,13.7,25.31,SW,225,7.4,7.4,28,0.00,,---,0.00,VWS V14.01,2013-02-12 09:05:00,
2013-02-12 03:10:00,44.1,13.9,25.31,SW,225,7.4,7.4,29,0.00,,---,0.00,VWS V14.01,2013-02-12 09:10:00,
2013-02-12 03:15:00,43.9,12.9,25.31,SW,225,6.5,6.5,28,0.00,,---,0.00,VWS V14.01,2013-02-12 09:15:00,
2013-02-12 03:20:00,43.5,12.6,25.31,SW,225,6.3,6.3,28,0.00,,---,0.00,VWS V14.01,2013-02-12 09:20:00,
2013-02-12 03:25:00,43.7,12.8,25.31,SW,225,7.4,7.8,28,0.00,,---,0.00,VWS V14.01,2013-02-12 09:25:00,
2013-02-12 03:30:00,43.7,12.8,25.34,SW,225,7.4,7.6,28,0.00,,---,0.00,VWS V14.01,2013-02-12 09:30:00,
2013-02-12 03:35:00,43.7,12.8,25.34,SW,225,6.3,6.3,28,0.00,,---,0.00,VWS V14.01,2013-02-12 09:35:00,
2013-02-12 03:40:00,43.7,12.8,25.34,SW,225,5.8,6.5,28,0.00,,---,0.00,VWS V14.01,2013-02-12 09:40:00,
2013-02-12 03:45:00,43.3,12.4,25.31,SW,225,5.6,5.6,28,0.00,,---,0.00,VWS V14.01,2013-02-12 09:45:00,
2013-02-12 03:50:00,43.3,12.4,25.31,SSW,202,5.4,5.6,28,0.00,,---,0.00,VWS V14.01,2013-02-12 09:50:00,
2013-02-12 03:55:00,43.3,12.4,25.31,SSW,202,3.4,3.8,28,0.00,,---,0.00,VWS V14.01,2013-02-12 09:55:00,
2013-02-12 04:00:00,43.3,12.4,25.34,SSW,202,3.8,5.8,28,0.00,,---,0.00,VWS V14.01,2013-02-12 10:00:00,
2013-02-12 04:05:00,43.2,12.3,25.34,SSW,202,3.4,4.9,28,0.00,,---,0.00,VWS V14.01,2013-02-12 10:05:00,
2013-02-12 04:10:00,43.0,12.1,25.34,SSW,202,2.9,2.9,28,0.00,,---,0.00,VWS V14.01,2013-02-12 10:10:00,
2013-02-12 04:15:00,41.2,11.4,25.34,NNW,338,1.3,2.0,29,0.00,,---,0.00,VWS V14.01,2013-02-12 10:15:00,
2013-02-12 04:20:00,39.9,10.2,25.34,ESE,112,0.0,1.3,29,0.00,,---,0.00,VWS V14.01,2013-02-12 10:20:00,
2013-02-12 04:26:00,40.6,10.9,25.34,SSW,202,1.6,2.0,29,0.00,,---,0.00,VWS V14.01,2013-02-12 10:26:00,
2013-02-12 04:31:00,41.2,11.4,25.34,SSW,202,1.6,1.6,29,0.00,,---,0.00,VWS V14.01,2013-02-12 10:31:00,
2013-02-12 04:36:00,41.5,11.7,25.34,South,180,4.3,4.5,29,0.00,,---,0.00,VWS V14.01,2013-02-12 10:36:00,
2013-02-12 04:41:00,41.7,11.8,25.34,SSE,158,4.0,4.0,29,0.00,,---,0.00,VWS V14.01,2013-02-12 10:41:00,
2013-02-12 04:46:00,41.7,11.8,25.34,South,180,2.0,3.4,29,0.00,,---,0.00,VWS V14.01,2013-02-12 10:46:00,
2013-02-12 04:51:00,41.0,11.2,25.34,South,180,0.0,1.3,29,0.00,,---,0.00,VWS V14.01,2013-02-12 10:51:00,
2013-02-12 04:56:00,40.8,11.0,25.34,SSW,202,2.2,2.5,29,0.00,,---,0.00,VWS V14.01,2013-02-12 10:56:00,
2013-02-12 05:01:00,40.6,10.9,25.34,SSW,202,5.6,6.5,29,0.00,,---,0.00,VWS V14.01,2013-02-12 11:01:00,
2013-02-12 05:06:00,40.8,11.0,25.34,SW,225,7.6,7.6,29,0.00,,---,0.00,VWS V14.01,2013-02-12 11:06:00,
2013-02-12 05:11:00,41.0,11.2,25.34,SW,225,8.7,8.7,29,0.00,,---,0.00,VWS V14.01,2013-02-12 11:11:00,
2013-02-12 05:16:00,40.8,11.8,25.34,SW,225,7.6,7.8,30,0.00,,---,0.00,VWS V14.01,2013-02-12 11:16:00,
2013-02-12 05:21:00,40.6,11.6,25.34,SW,225,9.6,10.3,30,0.00,,---,0.00,VWS V14.01,2013-02-12 11:21:00,
2013-02-12 05:26:00,40.5,11.5,25.34,SW,225,8.5,9.8,30,0.00,,---,0.00,VWS V14.01,2013-02-12 11:26:00,
2013-02-12 05:31:00,40.3,11.3,25.34,SW,225,8.7,9.2,30,0.00,,---,0.00,VWS V14.01,2013-02-12 11:31:00,
2013-02-12 05:36:00,40.3,11.3,25.34,SW,225,9.0,9.0,30,0.00,,---,0.00,VWS V14.01,2013-02-12 11:36:00,
2013-02-12 05:41:00,40.3,11.3,25.34,SW,225,7.8,8.5,30,0.00,,---,0.00,VWS V14.01,2013-02-12 11:41:00,
2013-02-12 05:46:00,40.3,11.3,25.37,WSW,248,8.5,8.5,30,0.00,,---,0.00,VWS V14.01,2013-02-12 11:46:00,
2013-02-12 05:51:00,41.0,11.2,25.37,WSW,248,10.5,11.2,29,0.00,,---,0.00,VWS V14.01,2013-02-12 11:51:00,
2013-02-12 05:56:00,41.2,11.4,25.37,WSW,248,12.8,12.8,29,0.00,,---,0.00,VWS V14.01,2013-02-12 11:56:00,
2013-02-12 06:01:00,41.2,11.4,25.37,WSW,248,10.5,11.4,29,0.00,,---,0.00,VWS V14.01,2013-02-12 12:01:00,
2013-02-12 06:06:00,40.6,11.6,25.37,WSW,248,10.7,10.7,30,0.00,,---,0.00,VWS V14.01,2013-02-12 12:06:00,
2013-02-12 06:11:00,40.3,11.3,25.37,SW,225,10.1,13.0,30,0.00,,---,0.00,VWS V14.01,2013-02-12 12:11:00,
2013-02-12 06:16:00,39.9,11.0,25.37,WSW,248,13.4,13.4,30,0.00,,---,0.00,VWS V14.01,2013-02-12 12:16:00,
2013-02-12 06:21:00,40.1,11.2,25.37,WSW,248,11.0,12.5,30,0.00,,---,0.00,VWS V14.01,2013-02-12 12:21:00,
2013-02-12 06:26:00,39.9,11.0,25.37,WSW,248,13.0,13.2,30,0.00,,---,0.00,VWS V14.01,2013-02-12 12:26:00,
2013-02-12 06:31:00,40.1,11.2,25.37,WSW,248,10.5,13.0,30,0.00,,---,0.00,VWS V14.01,2013-02-12 12:31:00,
2013-02-12 06:36:00,39.6,10.7,25.37,West,270,6.7,6.7,30,0.00,,---,0.00,VWS V14.01,2013-02-12 12:36:00,
2013-02-12 06:41:00,39.2,10.4,25.37,West,270,6.5,6.5,30,0.00,,---,0.00,VWS V14.01,2013-02-12 12:41:00,
2013-02-12 06:46:00,38.7,9.9,25.37,West,270,3.6,5.6,30,0.00,,---,0.00,VWS V14.01,2013-02-12 12:46:00,
2013-02-12 06:51:00,38.1,9.4,25.37,West,270,0.0,0.0,30,0.00,,---,0.00,VWS V14.01,2013-02-12 12:51:00,
2013-02-12 06:56:00,37.8,9.1,25.37,SE,135,2.9,2.9,30,0.00,,---,0.00,VWS V14.01,2013-02-12 12:56:00,
2013-02-12 07:01:00,36.9,9.1,25.37,ESE,112,3.4,3.4,31,0.00,,---,0.00,VWS V14.01,2013-02-12 13:01:00,
2013-02-12 07:06:00,36.5,8.8,25.37,ESE,112,4.0,4.3,31,0.00,,---,0.00,VWS V14.01,2013-02-12 13:06:00,
2013-02-12 07:11:00,36.9,9.1,25.37,ESE,112,4.0,4.0,31,0.00,,---,0.00,VWS V14.01,2013-02-12 13:11:00,
2013-02-12 07:16:00,36.9,9.8,25.37,SE,135,3.6,4.0,32,0.00,,---,0.00,VWS V14.01,2013-02-12 13:16:00,
2013-02-12 07:21:00,37.2,10.1,25.37,SSW,202,2.0,2.0,32,0.00,,---,0.00,VWS V14.01,2013-02-12 13:21:00,
2013-02-12 07:26:00,37.2,10.1,25.37,SSW,202,0.0,0.0,32,0.00,,---,0.00,VWS V14.01,2013-02-12 13:26:00,
2013-02-12 07:31:00,37.4,10.2,25.39,SW,225,2.2,3.4,32,0.00,,---,0.00,VWS V14.01,2013-02-12 13:31:00,
2013-02-12 07:36:00,37.2,10.1,25.39,SW,225,2.5,2.7,32,0.00,,---,0.00,VWS V14.01,2013-02-12 13:36:00,
2013-02-12 07:41:00,37.0,11.9,25.39,SW,225,2.9,3.8,35,0.00,,---,0.00,VWS V14.01,2013-02-12 13:41:00,
2013-02-12 07:46:00,36.9,16.5,25.39,WSW,248,8.7,8.7,43,0.00,,---,0.00,VWS V14.01,2013-02-12 13:46:00,
2013-02-12 07:51:00,37.6,20.2,25.39,WNW,292,6.3,12.1,49,0.00,,---,0.00,VWS V14.01,2013-02-12 13:51:00,
2013-02-12 07:56:00,39.0,20.5,25.39,West,270,12.3,12.3,47,0.00,,---,0.00,VWS V14.01,2013-02-12 13:56:00,
2013-02-12 08:01:00,39.2,20.2,25.39,WSW,248,9.8,10.5,46,0.00,,---,0.00,VWS V14.01,2013-02-12 14:01:00,
2013-02-12 08:06:00,39.4,18.8,25.39,WSW,248,20.8,20.8,43,0.00,,---,0.00,VWS V14.01,2013-02-12 14:06:00,
2013-02-12 08:11:00,39.6,18.9,25.39,West,270,17.9,17.9,43,0.00,,---,0.00,VWS V14.01,2013-02-12 14:11:00,
2013-02-12 08:16:00,39.9,18.7,25.39,West,270,15.2,17.9,42,0.00,,---,0.00,VWS V14.01,2013-02-12 14:16:00,
2013-02-12 08:21:00,39.9,18.1,25.39,West,270,15.4,15.4,41,0.00,,---,0.00,VWS V14.01,2013-02-12 14:21:00,
2013-02-12 08:26:00,40.3,17.9,25.39,West,270,25.3,25.3,40,0.00,,---,0.00,VWS V14.01,2013-02-12 14:26:00,
2013-02-12 08:31:00,40.6,17.6,25.39,West,270,19.9,24.4,39,0.00,,---,0.00,VWS V14.01,2013-02-12 14:31:00,
2013-02-12 08:36:00,40.6,17.6,25.39,WSW,248,26.4,27.3,39,0.00,,---,0.00,VWS V14.01,2013-02-12 14:36:00,
2013-02-12 08:41:00,40.8,17.8,25.39,WSW,248,19.5,32.9,39,0.00,,---,0.00,VWS V14.01,2013-02-12 14:41:00,
2013-02-12 08:46:00,41.0,18.0,25.39,West,270,23.9,23.9,39,0.00,,---,0.00,VWS V14.01,2013-02-12 14:46:00,
2013-02-12 08:51:00,41.5,17.8,25.39,West,270,30.9,30.9,38,0.00,,---,0.00,VWS V14.01,2013-02-12 14:51:00,
2013-02-12 08:56:00,41.7,18.0,25.39,West,270,21.5,21.5,38,0.00,,---,0.00,VWS V14.01,2013-02-12 14:56:00,
2013-02-12 09:01:00,42.1,18.3,25.37,West,270,26.6,30.0,38,0.00,,---,0.00,VWS V14.01,2013-02-12 15:01:00,
2013-02-12 09:06:00,42.3,18.5,25.37,WSW,248,26.4,26.4,38,0.00,,---,0.00,VWS V14.01,2013-02-12 15:06:00,
2013-02-12 09:11:00,42.4,18.6,25.37,West,270,23.5,30.0,38,0.00,,---,0.00,VWS V14.01,2013-02-12 15:11:00,
2013-02-12 09:16:00,42.4,18.0,25.39,West,270,25.7,25.7,37,0.00,,---,0.00,VWS V14.01,2013-02-12 15:16:00,
2013-02-12 09:21:00,42.6,18.2,25.39,West,270,26.4,26.4,37,0.00,,---,0.00,VWS V14.01,2013-02-12 15:21:00,
2013-02-12 09:26:00,43.0,17.2,25.39,WSW,248,25.5,26.6,35,0.00,,---,0.00,VWS V14.01,2013-02-12 15:26:00,
2013-02-12 09:31:00,43.3,17.5,25.39,WSW,248,19.9,19.9,35,0.00,,---,0.00,VWS V14.01,2013-02-12 15:31:00,
2013-02-12 09:36:00,43.5,17.0,25.39,West,270,30.9,30.9,34,0.00,,---,0.00,VWS V14.01,2013-02-12 15:36:00,
2013-02-12 09:41:00,44.1,16.8,25.39,West,270,22.4,22.4,33,0.00,,---,0.00,VWS V14.01,2013-02-12 15:41:00,
2013-02-12 09:46:00,44.6,17.3,25.42,West,270,23.9,26.6,33,0.00,,---,0.00,VWS V14.01,2013-02-12 15:46:00,
2013-02-12 09:51:00,44.2,17.0,25.42,West,270,26.2,26.2,33,0.00,,---,0.00,VWS V14.01,2013-02-12 15:51:00,
2013-02-12 09:56:00,45.1,17.8,25.42,WSW,248,19.9,23.9,33,0.00,,---,0.00,VWS V14.01,2013-02-12 15:56:00,
2013-02-12 10:01:00,45.0,16.9,25.42,West,270,35.1,44.1,32,0.05,,---,0.05,VWS V14.01,2013-02-12 16:01:00,
2013-02-12 10:06:00,44.8,16.7,25.42,West,270,19.9,27.5,32,0.05,,---,0.05,VWS V14.01,2013-02-12 16:06:00,
2013-02-12 10:11:00,45.1,17.1,25.42,WSW,248,21.9,24.2,32,0.05,,---,0.05,VWS V14.01,2013-02-12 16:11:00,
2013-02-12 10:16:00,45.5,16.6,25.42,West,270,15.2,15.2,31,0.05,,---,0.05,VWS V14.01,2013-02-12 16:16:00,
2013-02-12 10:21:00,47.1,18.1,25.42,West,270,14.8,14.8,31,0.05,,---,0.05,VWS V14.01,2013-02-12 16:21:00,
2013-02-12 10:26:00,46.9,17.9,25.42,West,270,19.5,19.5,31,0.05,,---,0.05,VWS V14.01,2013-02-12 16:26:00,
2013-02-12 10:31:00,45.3,16.5,25.42,WNW,292,19.5,32.0,31,0.05,,---,0.05,VWS V14.01,2013-02-12 16:31:00,
2013-02-12 10:36:00,46.4,16.7,25.42,WNW,292,15.2,23.5,30,0.05,,---,0.05,VWS V14.01,2013-02-12 16:36:00,
2013-02-12 10:41:00,46.8,17.0,25.42,West,270,16.3,20.6,30,0.05,,---,0.05,VWS V14.01,2013-02-12 16:41:00,
2013-02-12 10:46:00,47.1,17.3,25.42,WSW,248,19.9,19.9,30,0.05,,---,0.05,VWS V14.01,2013-02-12 16:46:00,
2013-02-12 10:51:00,46.6,16.0,25.42,West,270,19.5,32.4,29,0.05,,---,0.05,VWS V14.01,2013-02-12 16:51:00,
2013-02-12 10:56:00,46.6,16.0,25.42,West,270,30.4,33.1,29,0.05,,---,0.05,VWS V14.01,2013-02-12 16:56:00,
2013-02-12 11:01:00,46.8,16.2,25.42,WSW,248,25.3,25.3,29,0.05,,---,0.05,VWS V14.01,2013-02-12 17:01:00,
2013-02-12 11:06:00,46.8,16.2,25.42,WSW,248,29.8,29.8,29,0.00,,---,0.05,VWS V14.01,2013-02-12 17:06:00,
2013-02-12 11:11:00,46.6,15.2,25.42,West,270,22.2,28.6,28,0.00,,---,0.05,VWS V14.01,2013-02-12 17:11:00,
2013-02-12 11:16:00,47.3,15.9,25.39,West,270,20.1,22.6,28,0.00,,---,0.05,VWS V14.01,2013-02-12 17:16:00,
2013-02-12 11:21:00,47.5,16.0,25.39,West,270,23.9,29.1,28,0.00,,---,0.05,VWS V14.01,2013-02-12 17:21:00,
2013-02-12 11:26:00,48.4,16.0,25.39,WSW,248,22.4,23.5,27,0.00,,---,0.05,VWS V14.01,2013-02-12 17:26:00,
2013-02-12 11:31:00,47.1,14.9,25.42,WSW,248,32.2,36.5,27,0.00,,---,0.05,VWS V14.01,2013-02-12 17:31:00,
2013-02-12 11:36:00,48.0,15.6,25.42,WSW,248,25.5,25.5,27,0.00,,---,0.05,VWS V14.01,2013-02-12 17:36:00,
2013-02-12 11:41:00,47.7,15.3,25.42,West,270,24.4,28.4,27,0.00,,---,0.05,VWS V14.01,2013-02-12 17:41:00,
2013-02-12 11:46:00,48.9,15.6,25.42,WSW,248,31.3,31.3,26,0.00,,---,0.05,VWS V14.01,2013-02-12 17:46:00,
2013-02-12 11:51:00,49.3,15.9,25.42,WSW,248,17.0,17.0,26,0.00,,---,0.05,VWS V14.01,2013-02-12 17:51:00,
2013-02-12 11:56:00,48.7,15.4,25.42,West,270,27.5,27.5,26,0.00,,---,0.05,VWS V14.01,2013-02-12 17:56:00,
2013-02-12 12:01:00,49.3,14.0,25.42,WNW,292,21.5,21.5,24,0.00,,---,0.05,VWS V14.01,2013-02-12 18:01:00,
2013-02-12 12:06:00,49.8,14.5,25.42,WSW,248,27.3,27.3,24,0.00,,---,0.05,VWS V14.01,2013-02-12 18:06:00,
2013-02-12 12:11:00,49.1,10.9,25.42,West,270,30.2,32.7,21,0.00,,---,0.05,VWS V14.01,2013-02-12 18:11:00,
2013-02-12 12:16:00,49.5,11.2,25.42,West,270,25.7,32.0,21,0.04,,---,0.09,VWS V14.01,2013-02-12 18:16:00,
2013-02-12 12:21:00,49.6,11.3,25.42,WSW,248,32.2,32.2,21,0.04,,---,0.09,VWS V14.01,2013-02-12 18:21:00,
2013-02-12 12:26:00,49.5,11.2,25.42,West,270,16.8,23.0,21,0.04,,---,0.09,VWS V14.01,2013-02-12 18:26:00,
2013-02-12 12:31:00,51.8,13.1,25.39,West,270,26.4,26.4,21,0.04,,---,0.09,VWS V14.01,2013-02-12 18:31:00,
2013-02-12 12:36:00,49.3,8.8,25.39,West,270,30.4,30.4,19,0.04,,---,0.09,VWS V14.01,2013-02-12 18:36:00,
2013-02-12 12:41:00,50.7,10.0,25.39,WNW,292,28.9,28.9,19,0.04,,---,0.09,VWS V14.01,2013-02-12 18:41:00,
2013-02-12 12:46:00,51.1,10.3,25.42,West,270,25.7,25.7,19,0.04,,---,0.09,VWS V14.01,2013-02-12 18:46:00,
2013-02-12 12:51:00,53.1,10.7,25.42,West,270,21.9,21.9,18,0.04,,---,0.09,VWS V14.01,2013-02-12 18:51:00,
2013-02-12 12:56:00,52.0,9.8,25.42,West,270,20.8,22.4,18,0.04,,---,0.09,VWS V14.01,2013-02-12 18:56:00,
2013-02-12 13:01:00,51.6,10.7,25.42,West,270,19.7,30.7,19,0.04,,---,0.09,VWS V14.01,2013-02-12 19:01:00,
2013-02-12 13:06:00,51.3,10.4,25.42,WNW,292,23.0,23.0,19,0.04,,---,0.09,VWS V14.01,2013-02-12 19:06:00,
2013-02-12 13:11:00,52.2,10.0,25.42,West,270,27.5,35.1,18,0.04,,---,0.09,VWS V14.01,2013-02-12 19:11:00,
2013-02-12 13:16:00,51.8,9.7,25.42,WSW,248,23.5,23.5,18,0.00,,---,0.09,VWS V14.01,2013-02-12 19:16:00,
2013-02-12 13:21:00,51.6,10.7,25.42,West,270,16.6,26.9,19,0.00,,---,0.09,VWS V14.01,2013-02-12 19:21:00,
2013-02-12 13:26:00,51.8,9.7,25.42,WNW,292,13.0,14.3,18,0.00,,---,0.09,VWS V14.01,2013-02-12 19:26:00,
2013-02-12 13:31:00,52.0,9.8,25.39,WNW,292,23.7,23.7,18,0.00,,---,0.09,VWS V14.01,2013-02-12 19:31:00,
2013-02-12 13:36:00,51.1,10.3,25.39,West,270,25.3,25.3,19,0.00,,---,0.09,VWS V14.01,2013-02-12 19:36:00,
2013-02-12 13:41:00,51.8,9.7,25.39,WNW,292,16.6,22.4,18,0.00,,---,0.09,VWS V14.01,2013-02-12 19:41:00,
2013-02-12 13:46:00,50.4,9.7,25.37,WNW,292,26.6,32.0,19,0.00,,---,0.09,VWS V14.01,2013-02-12 19:46:00,
2013-02-12 13:51:00,51.1,10.3,25.37,West,270,19.9,19.9,19,0.00,,---,0.09,VWS V14.01,2013-02-12 19:51:00,
2013-02-12 13:56:00,51.8,9.7,25.37,West,270,24.2,24.2,18,0.00,,---,0.09,VWS V14.01,2013-02-12 19:56:00,
2013-02-12 14:01:00,50.9,10.1,25.37,West,270,26.0,30.2,19,0.00,,---,0.09,VWS V14.01,2013-02-12 20:01:00,
2013-02-12 14:06:00,52.3,10.1,25.37,WNW,292,15.9,15.9,18,0.00,,---,0.09,VWS V14.01,2013-02-12 20:06:00,
2013-02-12 14:11:00,51.3,10.4,25.37,WSW,248,30.7,30.7,19,0.00,,---,0.09,VWS V14.01,2013-02-12 20:11:00,
2013-02-12 14:16:00,51.3,10.4,25.37,West,270,17.5,22.2,19,0.00,,---,0.09,VWS V14.01,2013-02-12 20:16:00,
2013-02-12 14:21:00,51.8,9.7,25.37,West,270,24.2,26.0,18,0.00,,---,0.09,VWS V14.01,2013-02-12 20:21:00,
2013-02-12 14:26:00,52.3,10.1,25.37,WNW,292,23.7,25.7,18,0.00,,---,0.09,VWS V14.01,2013-02-12 20:26:00,
2013-02-12 14:31:00,52.5,10.2,25.37,West,270,19.7,19.7,18,0.00,,---,0.09,VWS V14.01,2013-02-12 20:31:00,
2013-02-12 14:36:00,51.6,10.7,25.37,West,270,28.0,28.0,19,0.00,,---,0.09,VWS V14.01,2013-02-12 20:36:00,
2013-02-12 14:41:00,51.8,9.7,25.37,WNW,292,25.5,25.5,18,0.00,,---,0.09,VWS V14.01,2013-02-12 20:41:00,
2013-02-12 14:46:00,52.9,10.6,25.37,WNW,292,22.4,23.5,18,0.00,,---,0.09,VWS V14.01,2013-02-12 20:46:00,
2013-02-12 14:51:00,52.9,10.6,25.37,NW,315,24.2,24.2,18,0.00,,---,0.09,VWS V14.01,2013-02-12 20:51:00,
2013-02-12 14:56:00,52.9,10.6,25.37,West,270,17.9,17.9,18,0.00,,---,0.09,VWS V14.01,2013-02-12 20:56:00,
2013-02-12 15:01:00,52.2,10.0,25.37,West,270,23.5,28.9,18,0.00,,---,0.09,VWS V14.01,2013-02-12 21:01:00,
2013-02-12 15:06:00,51.8,9.7,25.37,WSW,248,36.5,36.5,18,0.00,,---,0.09,VWS V14.01,2013-02-12 21:06:00,
2013-02-12 15:11:00,51.3,10.4,25.37,West,270,22.8,22.8,19,0.00,,---,0.09,VWS V14.01,2013-02-12 21:11:00,
2013-02-12 15:16:00,51.8,9.7,25.34,West,270,26.4,26.4,18,0.00,,---,0.09,VWS V14.01,2013-02-12 21:16:00,
2013-02-12 15:21:00,52.2,10.0,25.34,West,270,25.5,27.5,18,0.00,,---,0.09,VWS V14.01,2013-02-12 21:21:00,
2013-02-12 15:26:00,52.0,9.8,25.34,West,270,24.2,24.2,18,0.00,,---,0.09,VWS V14.01,2013-02-12 21:26:00,
2013-02-12 15:31:00,52.0,9.8,25.34,West,270,27.3,27.3,18,0.00,,---,0.09,VWS V14.01,2013-02-12 21:31:00,
2013-02-12 15:36:00,51.8,9.7,25.37,West,270,25.1,27.1,18,0.00,,---,0.09,VWS V14.01,2013-02-12 21:36:00,
2013-02-12 15:41:00,53.2,10.9,25.37,WSW,248,21.3,23.9,18,0.00,,---,0.09,VWS V14.01,2013-02-12 21:41:00,
2013-02-12 15:46:00,53.1,10.7,25.37,WNW,292,23.3,23.3,18,0.00,,---,0.09,VWS V14.01,2013-02-12 21:46:00,
2013-02-12 15:51:00,53.1,10.7,25.37,West,270,16.8,23.3,18,0.00,,---,0.09,VWS V14.01,2013-02-12 21:51:00,
2013-02-12 15:56:00,54.3,11.7,25.37,West,270,17.5,17.5,18,0.00,,---,0.09,VWS V14.01,2013-02-12 21:56:00,
2013-02-12 16:01:00,53.6,11.1,25.37,West,270,19.2,22.6,18,0.00,,---,0.09,VWS V14.01,2013-02-12 22:01:00,
2013-02-12 16:06:00,52.3,10.1,25.37,West,270,17.0,19.2,18,0.00,,---,0.09,VWS V14.01,2013-02-12 22:06:00,
2013-02-12 16:12:00,52.5,10.2,25.37,WSW,248,19.5,25.3,18,0.00,,---,0.09,VWS V14.01,2013-02-12 22:12:00,
2013-02-12 16:16:00,52.5,10.2,25.37,West,270,17.0,17.7,18,0.00,,---,0.09,VWS V14.01,2013-02-12 22:16:00,
2013-02-12 16:21:00,53.4,11.0,25.37,WSW,248,9.8,13.0,18,0.00,,---,0.09,VWS V14.01,2013-02-12 22:21:00,
2013-02-12 16:26:00,53.6,11.1,25.37,West,270,8.7,11.0,18,0.00,,---,0.09,VWS V14.01,2013-02-12 22:26:00,
2013-02-12 16:31:00,53.2,10.9,25.37,WSW,248,22.2,22.4,18,0.00,,---,0.09,VWS V14.01,2013-02-12 22:31:00,
2013-02-12 16:36:00,53.2,10.9,25.37,WNW,292,15.9,19.7,18,0.00,,---,0.09,VWS V14.01,2013-02-12 22:36:00,
2013-02-12 16:41:00,52.2,10.0,25.37,West,270,16.1,24.4,18,0.00,,---,0.09,VWS V14.01,2013-02-12 22:41:00,
2013-02-12 16:46:00,52.2,10.0,25.37,West,270,17.0,21.9,18,0.00,,---,0.09,VWS V14.01,2013-02-12 22:46:00,
2013-02-12 16:51:00,53.1,10.7,25.37,WNW,292,14.8,16.6,18,0.00,,---,0.09,VWS V14.01,2013-02-12 22:51:00,
2013-02-12 16:57:00,53.1,10.7,25.37,West,270,15.4,19.2,18,0.00,,---,0.09,VWS V14.01,2013-02-12 22:57:00,
2013-02-12 17:02:00,53.1,10.7,25.37,WNW,292,19.9,20.4,18,0.00,,---,0.09,VWS V14.01,2013-02-12 23:02:00,
2013-02-12 17:07:00,52.7,10.4,25.37,NW,315,15.4,19.7,18,0.00,,---,0.09,VWS V14.01,2013-02-12 23:07:00,
2013-02-12 17:12:00,52.7,10.4,25.37,NW,315,12.5,16.1,18,0.00,,---,0.09,VWS V14.01,2013-02-12 23:12:00,
2013-02-12 17:17:00,52.7,10.4,25.37,NW,315,13.0,13.0,18,0.00,,---,0.09,VWS V14.01,2013-02-12 23:17:00,
2013-02-12 17:22:00,52.7,10.4,25.37,NW,315,17.5,17.5,18,0.00,,---,0.09,VWS V14.01,2013-02-12 23:22:00,
2013-02-12 17:27:00,52.5,10.2,25.37,NW,315,9.8,12.5,18,0.00,,---,0.09,VWS V14.01,2013-02-12 23:27:00,
2013-02-12 17:32:00,52.3,10.1,25.37,NW,315,10.3,12.8,18,0.00,,---,0.09,VWS V14.01,2013-02-12 23:32:00,
2013-02-12 17:37:00,52.0,9.8,25.37,NNW,338,10.5,12.3,18,0.00,,---,0.09,VWS V14.01,2013-02-12 23:37:00,
2013-02-12 17:42:00,51.8,9.7,25.37,NW,315,10.1,13.0,18,0.00,,---,0.09,VWS V14.01,2013-02-12 23:42:00,
2013-02-12 17:47:00,51.8,9.7,25.34,NW,315,10.7,15.2,18,0.00,,---,0.09,VWS V14.01,2013-02-12 23:47:00,
2013-02-12 17:52:00,51.6,10.7,25.34,NNW,338,10.7,10.7,19,0.00,,---,0.09,VWS V14.01,2013-02-12 23:52:00,
2013-02-12 17:57:00,51.4,10.6,25.34,NW,315,12.5,16.8,19,0.00,,---,0.09,VWS V14.01,2013-02-12 23:57:00,
2013-02-12 18:02:00,51.1,10.3,25.37,NW,315,10.7,13.0,19,0.00,,---,0.09,VWS V14.01,2013-02-13 00:02:00,
2013-02-12 18:07:00,50.7,10.0,25.37,NW,315,12.8,12.8,19,0.00,,---,0.09,VWS V14.01,2013-02-13 00:07:00,
2013-02-12 18:12:00,50.2,9.5,25.37,NW,315,13.4,13.4,19,0.00,,---,0.09,VWS V14.01,2013-02-13 00:12:00,
2013-02-12 18:17:00,50.0,9.4,25.37,NW,315,11.0,11.0,19,0.00,,---,0.09,VWS V14.01,2013-02-13 00:17:00,
2013-02-12 18:22:00,49.5,8.9,25.37,NW,315,12.5,12.5,19,0.00,,---,0.09,VWS V14.01,2013-02-13 00:22:00,
2013-02-12 18:27:00,49.1,8.6,25.37,WNW,292,7.6,12.5,19,0.00,,---,0.09,VWS V14.01,2013-02-13 00:27:00,
2013-02-12 18:32:00,47.7,7.4,25.37,NNW,338,6.0,7.8,19,0.00,,---,0.09,VWS V14.01,2013-02-13 00:32:00,
2013-02-12 18:37:00,46.8,6.7,25.37,NNW,338,8.1,8.1,19,0.00,,---,0.09,VWS V14.01,2013-02-13 00:37:00,
2013-02-12 18:42:00,45.7,6.9,25.37,NNW,338,6.5,6.5,20,0.00,,---,0.09,VWS V14.01,2013-02-13 00:42:00,
2013-02-12 18:47:00,44.8,6.2,25.39,North,0,5.4,7.2,20,0.00,,---,0.09,VWS V14.01,2013-02-13 00:47:00,
2013-02-12 18:52:00,44.1,5.6,25.39,North,0,5.8,8.5,20,0.00,,---,0.09,VWS V14.01,2013-02-13 00:52:00,
2013-02-12 18:57:00,43.0,4.7,25.39,North,0,6.0,7.2,20,0.00,,---,0.09,VWS V14.01,2013-02-13 00:57:00,
2013-02-12 19:02:00,42.4,5.3,25.39,North,0,3.6,4.5,21,0.00,,---,0.09,VWS V14.01,2013-02-13 01:02:00,
2013-02-12 19:07:00,41.7,4.7,25.39,NNE,22,4.0,4.0,21,0.00,,---,0.09,VWS V14.01,2013-02-13 01:07:00,
2013-02-12 19:12:00,41.7,4.7,25.39,NNE,22,3.8,5.8,21,0.00,,---,0.09,VWS V14.01,2013-02-13 01:12:00,
2013-02-12 19:17:00,41.5,4.5,25.42,NNE,22,4.3,4.3,21,0.00,,---,0.09,VWS V14.01,2013-02-13 01:17:00,
2013-02-12 19:22:00,41.2,4.2,25.42,NNE,22,4.3,4.7,21,0.00,,---,0.09,VWS V14.01,2013-02-13 01:22:00,
2013-02-12 19:27:00,41.2,4.2,25.42,North,0,5.8,5.8,21,0.00,,---,0.09,VWS V14.01,2013-02-13 01:27:00,
2013-02-12 19:32:00,41.2,4.2,25.42,NNW,338,3.8,3.8,21,0.00,,---,0.09,VWS V14.01,2013-02-13 01:32:00,
2013-02-12 19:37:00,41.0,4.1,25.42,North,0,5.4,5.4,21,0.00,,---,0.09,VWS V14.01,2013-02-13 01:37:00,
2013-02-12 19:42:00,40.8,3.9,25.42,North,0,6.3,6.3,21,0.00,,---,0.09,VWS V14.01,2013-02-13 01:42:00,
2013-02-12 19:47:00,40.6,3.8,25.39,North,0,4.7,4.9,21,0.00,,---,0.09,VWS V14.01,2013-02-13 01:47:00,
2013-02-12 19:52:00,40.3,3.5,25.39,North,0,2.9,2.9,21,0.00,,---,0.09,VWS V14.01,2013-02-13 01:52:00,
2013-02-12 19:57:00,39.9,3.2,25.39,NNE,22,2.9,3.6,21,0.00,,---,0.09,VWS V14.01,2013-02-13 01:57:00,
2013-02-12 20:02:00,39.7,3.0,25.42,North,0,2.9,3.1,21,0.00,,---,0.09,VWS V14.01,2013-02-13 02:02:00,
2013-02-12 20:07:00,39.6,2.9,25.42,ENE,68,2.9,2.9,21,0.00,,---,0.09,VWS V14.01,2013-02-13 02:07:00,
2013-02-12 20:12:00,39.2,2.6,25.42,ENE,68,2.7,2.7,21,0.00,,---,0.09,VWS V14.01,2013-02-13 02:12:00,
2013-02-12 20:17:00,38.8,2.3,25.42,NE,45,2.2,2.5,21,0.00,,---,0.09,VWS V14.01,2013-02-13 02:17:00,
2013-02-12 20:22:00,38.8,2.3,25.42,North,0,4.3,4.3,21,0.00,,---,0.09,VWS V14.01,2013-02-13 02:22:00,
2013-02-12 20:27:00,38.8,2.3,25.42,North,0,4.0,4.0,21,0.00,,---,0.09,VWS V14.01,2013-02-13 02:27:00,
2013-02-12 20:32:00,39.0,2.4,25.45,NNE,22,3.1,3.1,21,0.00,,---,0.09,VWS V14.01,2013-02-13 02:32:00,
2013-02-12 20:37:00,38.8,2.3,25.45,NE,45,2.9,3.1,21,0.00,,---,0.09,VWS V14.01,2013-02-13 02:37:00,
2013-02-12 20:42:00,38.7,2.1,25.45,NNE,22,1.6,2.0,21,0.00,,---,0.09,VWS V14.01,2013-02-13 02:42:00,
2013-02-12 20:47:00,38.5,2.0,25.48,North,0,2.9,2.9,21,0.00,,---,0.09,VWS V14.01,2013-02-13 02:47:00,
2013-02-12 20:52:00,38.5,2.0,25.48,North,0,2.9,2.9,21,0.00,,---,0.09,VWS V14.01,2013-02-13 02:52:00,
2013-02-12 20:57:00,38.1,1.6,25.48,NNW,338,2.5,2.5,21,0.00,,---,0.09,VWS V14.01,2013-02-13 02:57:00,
2013-02-12 21:02:00,38.1,1.6,25.48,NNW,338,3.1,3.4,21,0.00,,---,0.09,VWS V14.01,2013-02-13 03:02:00,
2013-02-12 21:07:00,38.5,2.0,25.48,NNW,338,4.0,4.0,21,0.00,,---,0.09,VWS V14.01,2013-02-13 03:07:00,
2013-02-12 21:12:00,38.7,2.1,25.48,North,0,3.4,3.6,21,0.00,,---,0.09,VWS V14.01,2013-02-13 03:12:00,
2013-02-12 21:17:00,38.1,1.6,25.48,North,0,3.8,3.8,21,0.00,,---,0.09,VWS V14.01,2013-02-13 03:17:00,
2013-02-12 21:22:00,37.9,1.5,25.48,NNE,22,2.9,2.9,21,0.00,,---,0.09,VWS V14.01,2013-02-13 03:22:00,
2013-02-12 21:27:00,37.6,1.2,25.48,North,0,2.7,3.4,21,0.00,,---,0.09,VWS V14.01,2013-02-13 03:27:00,
2013-02-12 21:32:00,37.6,1.2,25.45,NNE,22,2.0,2.0,21,0.00,,---,0.09,VWS V14.01,2013-02-13 03:32:00,
2013-02-12 21:37:00,37.4,3.9,25.45,North,0,2.7,3.1,24,0.00,,---,0.09,VWS V14.01,2013-02-13 03:37:00,
2013-02-12 21:42:00,37.2,3.8,25.45,NNE,22,3.1,4.0,24,0.00,,---,0.09,VWS V14.01,2013-02-13 03:42:00,
2013-02-12 21:47:00,37.0,3.6,25.48,ENE,68,2.7,2.9,24,0.00,,---,0.09,VWS V14.01,2013-02-13 03:47:00,
2013-02-12 21:52:00,36.5,3.2,25.48,NE,45,1.1,1.6,24,0.00,,---,0.09,VWS V14.01,2013-02-13 03:52:00,
2013-02-12 21:57:00,36.1,5.4,25.48,NNE,22,3.8,3.8,27,0.00,,---,0.09,VWS V14.01,2013-02-13 03:57:00,
2013-02-12 22:02:00,36.7,8.2,25.48,NNE,22,5.6,5.6,30,0.00,,---,0.09,VWS V14.01,2013-02-13 04:02:00,
2013-02-12 22:07:00,36.9,8.3,25.48,NNE,22,4.9,6.5,30,0.00,,---,0.09,VWS V14.01,2013-02-13 04:07:00,
2013-02-12 22:12:00,36.5,8.0,25.48,NNE,22,3.4,3.4,30,0.00,,---,0.09,VWS V14.01,2013-02-13 04:12:00,
2013-02-12 22:17:00,36.0,9.0,25.48,NNE,22,3.1,3.6,32,0.00,,---,0.09,VWS V14.01,2013-02-13 04:17:00,
2013-02-12 22:22:00,35.6,8.7,25.48,NNE,22,2.7,2.7,32,0.00,,---,0.09,VWS V14.01,2013-02-13 04:22:00,
2013-02-12 22:27:00,35.4,9.2,25.48,NNE,22,2.5,2.5,33,0.00,,---,0.09,VWS V14.01,2013-02-13 04:27:00,
2013-02-12 22:32:00,34.9,8.7,25.48,NNE,22,2.2,2.5,33,0.00,,---,0.09,VWS V14.01,2013-02-13 04:32:00,
2013-02-12 22:37:00,34.7,7.9,25.48,WNW,292,1.6,2.5,32,0.00,,---,0.09,VWS V14.01,2013-02-13 04:37:00,
2013-02-12 22:42:00,34.5,7.7,25.48,NW,315,2.0,2.2,32,0.00,,---,0.09,VWS V14.01,2013-02-13 04:42:00,
2013-02-12 22:47:00,34.5,8.4,25.45,NW,315,2.5,2.7,33,0.00,,---,0.09,VWS V14.01,2013-02-13 04:47:00,
2013-02-12 22:52:00,34.3,8.2,25.45,NNW,338,0.0,1.3,33,0.00,,---,0.09,VWS V14.01,2013-02-13 04:52:00,
2013-02-12 22:57:00,33.8,7.8,25.45,ESE,112,0.0,0.0,33,0.00,,---,0.09,VWS V14.01,2013-02-13 04:57:00,
2013-02-12 23:00:00,33.6,7.6,25.45,WNW,292,0.0,1.3,33,0.00,,---,0.09,VWS V14.01,2013-02-13 05:00:00,
2013-02-12 23:05:00,33.6,8.3,25.45,NNW,338,1.6,1.6,34,0.00,,---,0.09,VWS V14.01,2013-02-13 05:05:00,
2013-02-12 23:10:00,33.8,8.4,25.48,NNW,338,2.5,2.5,34,0.00,,---,0.09,VWS V14.01,2013-02-13 05:10:00,
2013-02-12 23:15:00,34.2,9.4,25.48,West,270,1.6,2.5,35,0.00,,---,0.09,VWS V14.01,2013-02-13 05:15:00,
2013-02-12 23:20:00,33.8,9.1,25.48,WNW,292,1.6,2.2,35,0.00,,---,0.09,VWS V14.01,2013-02-13 05:20:00,
2013-02-12 23:25:00,33.6,9.5,25.48,ENE,68,0.0,0.0,36,0.00,,---,0.09,VWS V14.01,2013-02-13 05:25:00,
2013-02-12 23:30:00,33.3,9.2,25.48,ENE,68,0.0,0.0,36,0.00,,---,0.09,VWS V14.01,2013-02-13 05:30:00,
2013-02-12 23:35:00,33.1,9.1,25.48,WNW,292,0.0,0.0,36,0.00,,---,0.09,VWS V14.01,2013-02-13 05:35:00,
2013-02-12 23:40:00,33.3,9.8,25.48,WNW,292,0.0,0.0,37,0.00,,---,0.09,VWS V14.01,2013-02-13 05:40:00,
2013-02-12 23:45:00,32.9,9.5,25.48,WNW,292,0.0,0.0,37,0.00,,---,0.09,VWS V14.01,2013-02-13 05:45:00,
2013-02-12 23:50:00,33.1,11.4,25.48,SSE,158,2.9,2.9,40,0.00,,---,0.00,VWS V14.01,2013-02-13 05:50:00,
2013-02-12 23:55:00,33.4,12.8,25.48,South,180,3.6,3.8,42,0.00,,---,0.00,VWS V14.01,2013-02-13 05:55:00,